^^
Datos históricos de la estación: Murcia-Puente Tocinos
Diario Informe para Noviembre 14, 2019 Unidades:  Ambas    Ingés   Métrico
Diario Semanal Mensual Anual
  Máxima: Mínima: Promedio:
Temperatura: 64.2 °F /  17.9 °C 50.7 °F /  10.4 °C 56.3 °F /  13.5 °C
Punto de rocio: 51.3 °F /  10.7 °C 35.4 °F /  1.9 °C 43.5 °F /  6.4 °C
Humedad: 82% 41% 64%
Velocidad viento: 19.2mph /  30.9km/h - 5.7mph /  9.2km/h
Racha viento: 38.4mph /  61.8km/h - -
Viento- - SSO
Presión: 29.8 in /  1009.9 hPa 29.5 in /  999.3 hPa -
Precipitación: 0.1 in /  2.6 mm    
 
 
Tabla de datos para Noviembre 14, 2019
Hora Temperatura Punto de rocio Presión Viento Velocidad viento Racha viento Humedad Intensidad lluvia(por hora) Nubes
00:04 59.9 °F /  15.5 °C 47.7 °F /  8.7 °C 29.8in /  1009.9hPa NO 1.2mph /  1.9km/h 5mph /  8km/h 64% 0in /  0.0mm
00:09 59.5 °F /  15.3 °C 47.7 °F /  8.7 °C 29.8in /  1009.9hPa NNO 1.8mph /  2.9km/h 4.7mph /  7.6km/h 64.7% 0in /  0.0mm
00:14 59.5 °F /  15.3 °C 48.4 °F /  9.1 °C 29.8in /  1009.8hPa NE 1.8mph /  2.9km/h 6mph /  9.7km/h 66.5% 0in /  0.0mm
00:19 59.5 °F /  15.3 °C 49.3 °F /  9.6 °C 29.8in /  1009.8hPa NE 1.8mph /  2.9km/h 6.2mph /  10km/h 68.9% 0in /  0.0mm
00:24 59.4 °F /  15.2 °C 50 °F /  10 °C 29.8in /  1009.9hPa NNE 2.9mph /  4.7km/h 6mph /  9.7km/h 71% 0in /  0.0mm
00:29 59.4 °F /  15.2 °C 50.5 °F /  10.3 °C 29.8in /  1009.9hPa NNO 3.6mph /  5.8km/h 5.2mph /  8.4km/h 72.9% 0in /  0.0mm
00:34 59.2 °F /  15.1 °C 50.7 °F /  10.4 °C 29.8in /  1009.9hPa NNO 2.9mph /  4.6km/h 5.2mph /  8.4km/h 73.7% 0in /  0.0mm
00:39 58.8 °F /  14.9 °C 50.5 °F /  10.3 °C 29.8in /  1009.9hPa NNO 2.4mph /  3.9km/h 5mph /  8km/h 74% 0in /  0.0mm
00:44 58.5 °F /  14.7 °C 50.2 °F /  10.1 °C 29.8in /  1009.7hPa NNO 2.4mph /  3.9km/h 5mph /  8km/h 74% 0in /  0.0mm
00:49 58.1 °F /  14.5 °C 49.8 °F /  9.9 °C 29.8in /  1009.7hPa NNE 2.4mph /  3.9km/h 5mph /  8km/h 74% 0in /  0.0mm
00:54 57.7 °F /  14.3 °C 49.8 °F /  9.9 °C 29.8in /  1009.7hPa ONO 2.4mph /  3.9km/h 5mph /  8km/h 74.4% 0in /  0.0mm
00:59 57.7 °F /  14.3 °C 50 °F /  10 °C 29.8in /  1009.5hPa Oeste 2.4mph /  3.9km/h 3mph /  4.8km/h 75.2% 0in /  0.0mm
01:04 57.7 °F /  14.3 °C 50.5 °F /  10.3 °C 29.8in /  1009.5hPa Oeste 0.8mph /  1.3km/h 2mph /  3.2km/h 76.7% 0in /  0.0mm
01:09 57.7 °F /  14.3 °C 50.5 °F /  10.3 °C 29.8in /  1009.5hPa Calm   2.4mph /  3.9km/h 76.7% 0in /  0.0mm
01:14 57.6 °F /  14.2 °C 50.4 °F /  10.2 °C 29.8in /  1009.3hPa Calm   2.3mph /  3.7km/h 76.8% 0in /  0.0mm
01:19 57.6 °F /  14.2 °C 50.7 °F /  10.4 °C 29.8in /  1009.3hPa Calm   3.1mph /  5km/h 77.8% 0in /  0.0mm
01:24 57.6 °F /  14.2 °C 50.7 °F /  10.4 °C 29.8in /  1009.3hPa Calm   3.5mph /  5.6km/h 78% 0in /  0.0mm
01:29 57.6 °F /  14.2 °C 50.9 °F /  10.5 °C 29.8in /  1009.1hPa Calm   3.5mph /  5.6km/h 78.3% 0in /  0.0mm
01:34 57.6 °F /  14.2 °C 51.1 °F /  10.6 °C 29.8in /  1009.1hPa ONO 1.1mph /  1.8km/h 4.7mph /  7.6km/h 79% 0in /  0.0mm
01:39 57.4 °F /  14.1 °C 51.3 °F /  10.7 °C 29.8in /  1009.1hPa Oeste 1.8mph /  2.9km/h 5.9mph /  9.5km/h 79.7% 0in /  0.0mm
01:44 57.2 °F /  14 °C 51.1 °F /  10.6 °C 29.8in /  1008.8hPa Oeste 2.9mph /  4.7km/h 6mph /  9.7km/h 80.3% 0in /  0.0mm
01:49 57 °F /  13.9 °C 51.3 °F /  10.7 °C 29.8in /  1008.8hPa SSO 3.6mph /  5.8km/h 5mph /  8km/h 81% 0in /  0.0mm
01:54 57 °F /  13.9 °C 51.3 °F /  10.7 °C 29.8in /  1008.8hPa ESE 2.5mph /  4.1km/h 5mph /  8km/h 81% 0in /  0.0mm
01:59 57 °F /  13.9 °C 51.3 °F /  10.7 °C 29.8in /  1008.4hPa OSO 2mph /  3.2km/h 4mph /  6.4km/h 81.1% 0in /  0.0mm
02:04 57 °F /  13.9 °C 51.1 °F /  10.6 °C 29.8in /  1008.4hPa SE 1.9mph /  3km/h 5.2mph /  8.4km/h 80.8% 0in /  0.0mm
02:09 56.8 °F /  13.8 °C 50.5 °F /  10.3 °C 29.8in /  1008.4hPa SSE 1.8mph /  2.9km/h 5.8mph /  9.3km/h 79.9% 0in /  0.0mm
02:14 56.7 °F /  13.7 °C 50 °F /  10 °C 29.8in /  1008.2hPa Sur 2.6mph /  4.2km/h 6mph /  9.7km/h 79% 0in /  0.0mm
02:19 56.5 °F /  13.6 °C 49.8 °F /  9.9 °C 29.8in /  1008.2hPa SSO 3.1mph /  5km/h 5mph /  8km/h 78.6% 0in /  0.0mm
02:24 56.5 °F /  13.6 °C 49.6 °F /  9.8 °C 29.8in /  1008.2hPa SSO 2.7mph /  4.3km/h 4.6mph /  7.4km/h 78% 0in /  0.0mm
02:29 56.7 °F /  13.7 °C 49.6 °F /  9.8 °C 29.8in /  1008.1hPa Oeste 2.4mph /  3.9km/h 5.9mph /  9.5km/h 77.3% 0in /  0.0mm
02:34 56.7 °F /  13.7 °C 49.5 °F /  9.7 °C 29.8in /  1008.1hPa ONO 3.2mph /  5.1km/h 6.9mph /  11.1km/h 77% 0in /  0.0mm
02:39 56.7 °F /  13.7 °C 49.5 °F /  9.7 °C 29.8in /  1008.1hPa ONO 3.6mph /  5.8km/h 7mph /  11.3km/h 77% 0in /  0.0mm
02:44 56.7 °F /  13.7 °C 49.5 °F /  9.7 °C 29.8in /  1008.1hPa SSO 3.1mph /  5km/h 7mph /  11.3km/h 77% 0in /  0.0mm
02:49 56.7 °F /  13.7 °C 49.6 °F /  9.8 °C 29.8in /  1008.1hPa SE 2.9mph /  4.7km/h 5mph /  8km/h 77.3% 0in /  0.0mm
02:54 56.7 °F /  13.7 °C 49.5 °F /  9.7 °C 29.8in /  1008.1hPa Sur 2.9mph /  4.7km/h 5mph /  8km/h 77% 0in /  0.0mm
02:59 56.7 °F /  13.7 °C 49.5 °F /  9.7 °C 29.8in /  1007.7hPa SSO 2.9mph /  4.7km/h 5mph /  8km/h 77% 0in /  0.0mm
03:04 56.7 °F /  13.7 °C 49.5 °F /  9.7 °C 29.8in /  1007.7hPa SSO 2.2mph /  3.5km/h 3.6mph /  5.8km/h 76.7% 0in /  0.0mm
03:09 56.7 °F /  13.7 °C 48.9 °F /  9.4 °C 29.8in /  1007.7hPa SSE 1.8mph /  2.9km/h 5.9mph /  9.5km/h 75.6% 0in /  0.0mm
03:14 56.5 °F /  13.6 °C 48.4 °F /  9.1 °C 29.8in /  1007.6hPa SSE 2.6mph /  4.2km/h 6mph /  9.7km/h 74.2% 0in /  0.0mm
03:19 56.3 °F /  13.5 °C 48.2 °F /  9 °C 29.8in /  1007.6hPa SSE 3.1mph /  5km/h 5.8mph /  9.3km/h 74% 0in /  0.0mm
03:24 56.1 °F /  13.4 °C 48 °F /  8.9 °C 29.8in /  1007.6hPa SE 3.4mph /  5.5km/h 7.4mph /  11.9km/h 74% 0in /  0.0mm
03:29 55.9 °F /  13.3 °C 47.8 °F /  8.8 °C 29.7in /  1007.3hPa SSE 3.6mph /  5.8km/h 7mph /  11.3km/h 74.1% 0in /  0.0mm
03:34 55.8 °F /  13.2 °C 48 °F /  8.9 °C 29.7in /  1007.3hPa SSE 3.6mph /  5.8km/h 6mph /  9.7km/h 75% 0in /  0.0mm
03:39 55.6 °F /  13.1 °C 47.8 °F /  8.8 °C 29.7in /  1007.3hPa SSO 3.6mph /  5.8km/h 6.2mph /  10km/h 75.3% 0in /  0.0mm
03:44 55.6 °F /  13.1 °C 48 °F /  8.9 °C 29.7in /  1006.8hPa NNO 3.2mph /  5.1km/h 6mph /  9.7km/h 76% 0in /  0.0mm
03:49 55.2 °F /  12.9 °C 48 °F /  8.9 °C 29.7in /  1006.8hPa ONO 2.9mph /  4.7km/h 6mph /  9.7km/h 76.4% 0in /  0.0mm
03:54 55 °F /  12.8 °C 48.2 °F /  9 °C 29.7in /  1006.8hPa ONO 2.5mph /  4.1km/h 5mph /  8km/h 77.8% 0in /  0.0mm
03:59 54.9 °F /  12.7 °C 48.6 °F /  9.2 °C 29.7in /  1006.4hPa ONO 2.4mph /  3.9km/h 5mph /  8km/h 79% 0in /  0.0mm
04:04 54.9 °F /  12.7 °C 48.7 °F /  9.3 °C 29.7in /  1006.4hPa ONO 2mph /  3.2km/h 3mph /  4.8km/h 79.6% 0in /  0.0mm
04:09 54.9 °F /  12.7 °C 48.7 °F /  9.3 °C 29.7in /  1006.4hPa ONO 1.8mph /  2.9km/h 4.3mph /  6.9km/h 80% 0in /  0.0mm
04:14 54.9 °F /  12.7 °C 48.7 °F /  9.3 °C 29.7in /  1006.1hPa ONO 1.8mph /  2.9km/h 5mph /  8km/h 80% 0in /  0.0mm
04:19 54.9 °F /  12.7 °C 48.7 °F /  9.3 °C 29.7in /  1006.1hPa ONO 1.8mph /  2.9km/h 5mph /  8km/h 80% 0in /  0.0mm
04:24 54.9 °F /  12.7 °C 48.7 °F /  9.3 °C 29.7in /  1006.1hPa Oeste 1.6mph /  2.5km/h 5.2mph /  8.4km/h 80% 0in /  0.0mm
04:29 54.9 °F /  12.7 °C 48.7 °F /  9.3 °C 29.7in /  1005.7hPa ESE 1.4mph /  2.2km/h 5mph /  8km/h 79.6% 0in /  0.0mm
04:34 54.9 °F /  12.7 °C 48.6 °F /  9.2 °C 29.7in /  1005.7hPa ESE 1.8mph /  2.9km/h 5mph /  8km/h 79% 0in /  0.0mm
04:39 54.9 °F /  12.7 °C 48.2 °F /  9 °C 29.7in /  1005.7hPa Este 2mph /  3.2km/h 5.2mph /  8.4km/h 78.6% 0in /  0.0mm
04:44 54.5 °F /  12.5 °C 47.8 °F /  8.8 °C 29.7in /  1005.2hPa Este 2.2mph /  3.6km/h 5mph /  8km/h 78.3% 0in /  0.0mm
04:49 54.1 °F /  12.3 °C 47.8 °F /  8.8 °C 29.7in /  1005.2hPa ESE 2.4mph /  3.9km/h 4.7mph /  7.6km/h 79% 0in /  0.0mm
04:54 54 °F /  12.2 °C 47.7 °F /  8.7 °C 29.7in /  1005.2hPa SSE 2.4mph /  3.9km/h 5mph /  8km/h 79% 0in /  0.0mm
04:59 54 °F /  12.2 °C 47.7 °F /  8.7 °C 29.7in /  1004.7hPa SSE 2.4mph /  3.9km/h 5mph /  8km/h 79.2% 0in /  0.0mm
05:04 54 °F /  12.2 °C 47.8 °F /  8.8 °C 29.7in /  1004.7hPa SSE 2.7mph /  4.4km/h 5mph /  8km/h 80% 0in /  0.0mm
05:09 54 °F /  12.2 °C 47.7 °F /  8.7 °C 29.7in /  1004.7hPa SSE 2.9mph /  4.7km/h 5mph /  8km/h 79.4% 0in /  0.0mm
05:14 54 °F /  12.2 °C 47.7 °F /  8.7 °C 29.7in /  1004.4hPa SE 1.9mph /  3.1km/h 5.2mph /  8.4km/h 79.1% 0in /  0.0mm
05:19 53.8 °F /  12.1 °C 47.3 °F /  8.5 °C 29.7in /  1004.4hPa NO 1.4mph /  2.2km/h 5mph /  8km/h 79% 0in /  0.0mm
05:24 53.2 °F /  11.8 °C 47.1 °F /  8.4 °C 29.7in /  1004.4hPa NO 2.1mph /  3.3km/h 5mph /  8km/h 79.3% 0in /  0.0mm
05:29 53.1 °F /  11.7 °C 47.3 °F /  8.5 °C 29.7in /  1004.4hPa ONO 2.4mph /  3.9km/h 5mph /  8km/h 80.4% 0in /  0.0mm
05:34 53.1 °F /  11.7 °C 47.5 °F /  8.6 °C 29.7in /  1004.4hPa ONO 2.2mph /  3.5km/h 5mph /  8km/h 81.5% 0in /  0.0mm
05:39 53.1 °F /  11.7 °C 47.7 °F /  8.7 °C 29.7in /  1004.4hPa ONO 2mph /  3.2km/h 3mph /  4.8km/h 82% 0in /  0.0mm
05:44 53.1 °F /  11.7 °C 47.7 °F /  8.7 °C 29.7in /  1004.3hPa ONO 1.6mph /  2.6km/h 7.4mph /  11.9km/h 82% 0in /  0.0mm
05:49 52.9 °F /  11.6 °C 47.3 °F /  8.5 °C 29.7in /  1004.3hPa ESE 1.4mph /  2.2km/h 7mph /  11.3km/h 81.1% 0in /  0.0mm
05:54 52.7 °F /  11.5 °C 46.9 °F /  8.3 °C 29.7in /  1004.3hPa SE 2.8mph /  4.5km/h 6mph /  9.7km/h 81% 0in /  0.0mm
05:59 52.5 °F /  11.4 °C 46.9 °F /  8.3 °C 29.7in /  1004.0hPa SE 3.6mph /  5.8km/h 5mph /  8km/h 81.4% 0in /  0.0mm
06:04 52.5 °F /  11.4 °C 47.1 °F /  8.4 °C 29.7in /  1004.0hPa SO 2.4mph /  3.9km/h 2.3mph /  3.7km/h 82% 0in /  0.0mm
06:09 52.5 °F /  11.4 °C 47.3 °F /  8.5 °C 29.7in /  1004.0hPa SO 1.8mph /  2.9km/h 2mph /  3.2km/h 82% 0in /  0.0mm
06:14 52.7 °F /  11.5 °C 47.5 °F /  8.6 °C 29.6in /  1003.8hPa SO 0.7mph /  1.1km/h   82% 0in /  0.0mm
06:19 53.1 °F /  11.7 °C 47.5 °F /  8.6 °C 29.6in /  1003.8hPa Calm     81.7% 0in /  0.0mm
06:24 53.2 °F /  11.8 °C 47.5 °F /  8.6 °C 29.6in /  1003.8hPa Calm   3.6mph /  5.8km/h 81% 0in /  0.0mm
06:29 53.2 °F /  11.8 °C 47.3 °F /  8.5 °C 29.6in /  1003.5hPa Calm   4mph /  6.4km/h 80.1% 0in /  0.0mm
06:34 53.1 °F /  11.7 °C 47.3 °F /  8.5 °C 29.6in /  1003.5hPa Oeste 1.2mph /  1.9km/h 3.6mph /  5.8km/h 80.7% 0in /  0.0mm
06:39 53.1 °F /  11.7 °C 47.5 °F /  8.6 °C 29.6in /  1003.5hPa Oeste 1.8mph /  2.9km/h 4mph /  6.4km/h 81% 0in /  0.0mm
06:44 53.1 °F /  11.7 °C 47.5 °F /  8.6 °C 29.6in /  1003.3hPa Oeste 1.6mph /  2.5km/h 3mph /  4.8km/h 81% 0in /  0.0mm
06:49 53.1 °F /  11.7 °C 47.5 °F /  8.6 °C 29.6in /  1003.3hPa SSE 1.4mph /  2.2km/h 4.6mph /  7.4km/h 81% 0in /  0.0mm
06:54 53.2 °F /  11.8 °C 47.3 °F /  8.5 °C 29.6in /  1003.3hPa ESE 1.8mph /  2.9km/h 5.8mph /  9.3km/h 80.4% 0in /  0.0mm
06:59 53.1 °F /  11.7 °C 47.1 °F /  8.4 °C 29.6in /  1003.3hPa ESE 2mph /  3.2km/h 6mph /  9.7km/h 80% 0in /  0.0mm
07:04 52.7 °F /  11.5 °C 46.8 °F /  8.2 °C 29.6in /  1003.3hPa ESE 2.2mph /  3.6km/h 5.9mph /  9.5km/h 80% 0in /  0.0mm
07:09 52.7 °F /  11.5 °C 46.9 °F /  8.3 °C 29.6in /  1003.3hPa ESE 2.4mph /  3.9km/h 6mph /  9.7km/h 80.8% 0in /  0.0mm
07:14 52.9 °F /  11.6 °C 46.9 °F /  8.3 °C 29.6in /  1003.2hPa Este 3.2mph /  5.1km/h 5.2mph /  8.4km/h 80.5% 0in /  0.0mm
07:19 53.1 °F /  11.7 °C 47.5 °F /  8.6 °C 29.6in /  1003.2hPa ESE 3.6mph /  5.8km/h 5mph /  8km/h 80.9% 0in /  0.0mm
07:24 53.6 °F /  12 °C 47.3 °F /  8.5 °C 29.6in /  1003.3hPa ESE 3.2mph /  5.1km/h 5mph /  8km/h 79.6% 0in /  0.0mm
07:29 54 °F /  12.2 °C 47.1 °F /  8.4 °C 29.6in /  1003.3hPa SE 2.9mph /  4.7km/h 5mph /  8km/h 77.2% 0in /  0.0mm
07:34 54.7 °F /  12.6 °C 46.8 °F /  8.2 °C 29.6in /  1003.3hPa SSO 2.3mph /  3.7km/h 5.2mph /  8.4km/h 74.5% 0in /  0.0mm
07:39 55 °F /  12.8 °C 46.8 °F /  8.2 °C 29.6in /  1003.3hPa SSE 2mph /  3.2km/h 5mph /  8km/h 73.4% 0in /  0.0mm
07:44 55.4 °F /  13 °C 46.9 °F /  8.3 °C 29.6in /  1003.0hPa ESE 2.2mph /  3.6km/h 5mph /  8km/h 73% 0in /  0.0mm
07:49 55.4 °F /  13 °C 46.9 °F /  8.3 °C 29.6in /  1003.0hPa ESE 2.4mph /  3.9km/h 5mph /  8km/h 73% 0in /  0.0mm
07:54 55.2 °F /  12.9 °C 46.6 °F /  8.1 °C 29.6in /  1003.0hPa Este 2.4mph /  3.9km/h 4mph /  6.4km/h 72.6% 0in /  0.0mm
07:59 55.2 °F /  12.9 °C 46.4 °F /  8 °C 29.6in /  1002.9hPa North 2.4mph /  3.9km/h 4.6mph /  7.4km/h 72.1% 0in /  0.0mm
08:04 55.2 °F /  12.9 °C 45.9 °F /  7.7 °C 29.6in /  1002.9hPa NNO 2mph /  3.2km/h 5mph /  8km/h 70.5% 0in /  0.0mm
08:09 55.8 °F /  13.2 °C 45.7 °F /  7.6 °C 29.6in /  1002.9hPa North 1.8mph /  2.9km/h 4.7mph /  7.6km/h 69.3% 0in /  0.0mm
08:14 55.6 °F /  13.1 °C 45.7 °F /  7.6 °C 29.6in /  1002.8hPa NNE 2.6mph /  4.2km/h 5.2mph /  8.4km/h 69.1% 0in /  0.0mm
08:19 55.6 °F /  13.1 °C 45.7 °F /  7.6 °C 29.6in /  1002.8hPa North 3.1mph /  5km/h 5.2mph /  8.4km/h 69.1% 0in /  0.0mm
08:24 55.8 °F /  13.2 °C 45.7 °F /  7.6 °C 29.6in /  1002.8hPa North 2.4mph /  3.9km/h 5mph /  8km/h 68.8% 0in /  0.0mm
08:29 55.8 °F /  13.2 °C 45.7 °F /  7.6 °C 29.6in /  1002.7hPa Oeste 2mph /  3.2km/h 4.7mph /  7.6km/h 69% 0in /  0.0mm
08:34 55.4 °F /  13 °C 45.7 °F /  7.6 °C 29.6in /  1002.7hPa Oeste 2.2mph /  3.6km/h 5.2mph /  8.4km/h 69.4% 0in /  0.0mm
08:39 55.2 °F /  12.9 °C 45.3 °F /  7.4 °C 29.6in /  1002.8hPa Oeste 2.4mph /  3.9km/h 5mph /  8km/h 69.4% 0in /  0.0mm
08:44 55 °F /  12.8 °C 45.5 °F /  7.5 °C 29.6in /  1002.8hPa NO 2.4mph /  3.9km/h 5mph /  8km/h 70% 0in /  0.0mm
08:49 55 °F /  12.8 °C 45.1 °F /  7.3 °C 29.6in /  1002.8hPa Oeste 2.4mph /  3.9km/h 15.2mph /  24.5km/h 69.1% 0in /  0.0mm
08:54 56.7 °F /  13.7 °C 43.2 °F /  6.2 °C 29.6in /  1002.8hPa SO 2.8mph /  4.5km/h 15mph /  24.1km/h 60.9% 0in /  0.0mm
08:59 59.7 °F /  15.4 °C 42.1 °F /  5.6 °C 29.6in /  1002.6hPa SO 3.1mph /  5km/h 17.3mph /  27.8km/h 52.3% 0in /  0.0mm
09:04 61.3 °F /  16.3 °C 41.5 °F /  5.3 °C 29.6in /  1002.6hPa SO 7.1mph /  11.5km/h 17.5mph /  28.2km/h 48% 0in /  0.0mm
09:09 62.2 °F /  16.8 °C 41.4 °F /  5.2 °C 29.6in /  1002.6hPa SO 9.2mph /  14.8km/h 18.5mph /  29.8km/h 46.2% 0in /  0.0mm
09:14 62.8 °F /  17.1 °C 41 °F /  5 °C 29.6in /  1002.6hPa SSO 10.4mph /  16.8km/h 19mph /  30.6km/h 45% 0in /  0.0mm
09:19 63 °F /  17.2 °C 41.4 °F /  5.2 °C 29.6in /  1002.6hPa SSO 11.2mph /  18km/h 19.6mph /  31.5km/h 45% 0in /  0.0mm
09:24 63 °F /  17.2 °C 41.2 °F /  5.1 °C 29.6in /  1002.6hPa SSO 11.3mph /  18.2km/h 20.7mph /  33.3km/h 45% 0in /  0.0mm
09:29 63 °F /  17.2 °C 41.4 °F /  5.2 °C 29.6in /  1002.6hPa SSO 11.4mph /  18.4km/h 21mph /  33.8km/h 45% 0in /  0.0mm
09:34 63 °F /  17.2 °C 41.4 °F /  5.2 °C 29.6in /  1002.6hPa SSO 11.7mph /  18.8km/h 21.9mph /  35.2km/h 45% 0in /  0.0mm
09:39 63 °F /  17.2 °C 41.7 °F /  5.4 °C 29.6in /  1002.6hPa SSO 11.8mph /  19km/h 22mph /  35.4km/h 45.9% 0in /  0.0mm
09:44 62.8 °F /  17.1 °C 41.7 °F /  5.4 °C 29.6in /  1002.5hPa SSO 11.4mph /  18.4km/h 19mph /  30.6km/h 46% 0in /  0.0mm
09:49 62.8 °F /  17.1 °C 41.7 °F /  5.4 °C 29.6in /  1002.5hPa SSO 11.2mph /  18km/h 19mph /  30.6km/h 46% 0in /  0.0mm
09:54 62.8 °F /  17.1 °C 41.7 °F /  5.4 °C 29.6in /  1002.6hPa SSO 10.4mph /  16.8km/h 18.4mph /  29.6km/h 46% 0in /  0.0mm
09:59 62.8 °F /  17.1 °C 41.7 °F /  5.4 °C 29.6in /  1002.6hPa SSO 10mph /  16.1km/h 18.5mph /  29.8km/h 46% 0in /  0.0mm
10:04 63 °F /  17.2 °C 41.5 °F /  5.3 °C 29.6in /  1002.6hPa SSO 10.4mph /  16.8km/h 19.7mph /  31.7km/h 45.4% 0in /  0.0mm
10:09 63.1 °F /  17.3 °C 41.4 °F /  5.2 °C 29.6in /  1002.8hPa SSO 10.7mph /  17.2km/h 20mph /  32.2km/h 45% 0in /  0.0mm
10:14 63.1 °F /  17.3 °C 41.4 °F /  5.2 °C 29.6in /  1002.8hPa Sur 11mph /  17.7km/h 17.3mph /  27.8km/h 44.8% 0in /  0.0mm
10:19 63.3 °F /  17.4 °C 41.4 °F /  5.2 °C 29.6in /  1002.8hPa SSO 11.2mph /  18km/h 17.3mph /  27.8km/h 44.7% 0in /  0.0mm
10:24 63.3 °F /  17.4 °C 41.5 °F /  5.3 °C 29.6in /  1002.8hPa SSO 9.6mph /  15.5km/h 14mph /  22.5km/h 45% 0in /  0.0mm
10:29 63.1 °F /  17.3 °C 41.4 °F /  5.2 °C 29.6in /  1002.7hPa Sur 8.7mph /  14km/h 13mph /  20.9km/h 44.8% 0in /  0.0mm
10:34 63.3 °F /  17.4 °C 41.5 °F /  5.3 °C 29.6in /  1002.7hPa SSO 8mph /  12.9km/h 15mph /  24.1km/h 44.9% 0in /  0.0mm
10:39 63.3 °F /  17.4 °C 41.5 °F /  5.3 °C 29.6in /  1002.9hPa Sur 7.6mph /  12.2km/h 15mph /  24.1km/h 45% 0in /  0.0mm
10:44 63.1 °F /  17.3 °C 41.4 °F /  5.2 °C 29.6in /  1002.9hPa Sur 7.1mph /  11.5km/h 11.8mph /  19km/h 45% 0in /  0.0mm
10:49 63.1 °F /  17.3 °C 41.4 °F /  5.2 °C 29.6in /  1002.9hPa SSO 6.9mph /  11.1km/h 12mph /  19.3km/h 45% 0in /  0.0mm
10:54 63.1 °F /  17.3 °C 41 °F /  5 °C 29.6in /  1002.9hPa SSO 6.9mph /  11.1km/h 12.5mph /  20.1km/h 44.3% 0in /  0.0mm
10:59 63.3 °F /  17.4 °C 41 °F /  5 °C 29.6in /  1002.9hPa SSO 6.9mph /  11.1km/h 15.2mph /  24.5km/h 43.9% 0in /  0.0mm
11:04 63.3 °F /  17.4 °C 40.5 °F /  4.7 °C 29.6in /  1002.9hPa SSO 8.1mph /  13km/h 15mph /  24.1km/h 43.1% 0in /  0.0mm
11:09 63.3 °F /  17.4 °C 40.5 °F /  4.7 °C 29.6in /  1002.9hPa SSO 8.7mph /  14km/h 14mph /  22.5km/h 43.1% 0in /  0.0mm
11:14 63.3 °F /  17.4 °C 40.5 °F /  4.7 °C 29.6in /  1002.7hPa SSO 7.9mph /  12.7km/h 15mph /  24.1km/h 43% 0in /  0.0mm
11:19 63.5 °F /  17.5 °C 40.5 °F /  4.7 °C 29.6in /  1002.7hPa SSO 7.4mph /  11.9km/h 15mph /  24.1km/h 42.9% 0in /  0.0mm
11:24 63.3 °F /  17.4 °C 40.5 °F /  4.7 °C 29.6in /  1002.7hPa SSO 7.5mph /  12.1km/h 13mph /  20.9km/h 43% 0in /  0.0mm
11:29 63.3 °F /  17.4 °C 40.5 °F /  4.7 °C 29.6in /  1002.5hPa SSO 7.6mph /  12.2km/h 12.7mph /  20.4km/h 43.1% 0in /  0.0mm
11:34 63.3 °F /  17.4 °C 40.6 °F /  4.8 °C 29.6in /  1002.5hPa SSO 8mph /  12.8km/h 17.5mph /  28.2km/h 43.5% 0in /  0.0mm
11:39 63.3 °F /  17.4 °C 40.5 °F /  4.7 °C 29.6in /  1002.5hPa SSO 8.1mph /  13km/h 17.3mph /  27.8km/h 43% 0in /  0.0mm
11:44 63.3 °F /  17.4 °C 40.5 °F /  4.7 °C 29.6in /  1002.0hPa SSO 9.4mph /  15.2km/h 16mph /  25.7km/h 43% 0in /  0.0mm
11:49 63.3 °F /  17.4 °C 40.3 °F /  4.6 °C 29.6in /  1002.0hPa SSO 10.2mph /  16.4km/h 15mph /  24.1km/h 42.9% 0in /  0.0mm
11:54 63.3 °F /  17.4 °C 39.9 °F /  4.4 °C 29.6in /  1002.0hPa SSO 9.6mph /  15.4km/h 17.3mph /  27.8km/h 42.2% 0in /  0.0mm
11:59 63.3 °F /  17.4 °C 39.7 °F /  4.3 °C 29.6in /  1001.5hPa SSO 9.2mph /  14.8km/h 17.3mph /  27.8km/h 41.8% 0in /  0.0mm
12:04 63.3 °F /  17.4 °C 39.4 °F /  4.1 °C 29.6in /  1001.5hPa SSO 9.9mph /  15.9km/h 17.3mph /  27.8km/h 41.2% 0in /  0.0mm
12:09 63.5 °F /  17.5 °C 39.4 °F /  4.1 °C 29.6in /  1001.5hPa SSO 10.2mph /  16.4km/h 16mph /  25.7km/h 41% 0in /  0.0mm
12:14 63.5 °F /  17.5 °C 39.9 °F /  4.4 °C 29.6in /  1001.2hPa SSO 9.1mph /  14.7km/h 18.5mph /  29.8km/h 41.9% 0in /  0.0mm
12:19 63.3 °F /  17.4 °C 39.7 °F /  4.3 °C 29.6in /  1001.2hPa SSO 8.5mph /  13.7km/h 20.7mph /  33.3km/h 42% 0in /  0.0mm
12:24 63.1 °F /  17.3 °C 39.9 °F /  4.4 °C 29.6in /  1001.2hPa Sur 9.4mph /  15.2km/h 21mph /  33.8km/h 42.3% 0in /  0.0mm
12:29 63.1 °F /  17.3 °C 39.9 °F /  4.4 °C 29.6in /  1000.9hPa SSO 10mph /  16.1km/h 17.3mph /  27.8km/h 42.5% 0in /  0.0mm
12:34 63.1 °F /  17.3 °C 39.6 °F /  4.2 °C 29.6in /  1000.9hPa Sur 9.1mph /  14.7km/h 19mph /  30.6km/h 42% 0in /  0.0mm
12:39 63.1 °F /  17.3 °C 39.7 °F /  4.3 °C 29.6in /  1000.9hPa Sur 8.7mph /  14km/h 22.3mph /  35.9km/h 42% 0in /  0.0mm
12:44 63.1 °F /  17.3 °C 39.7 °F /  4.3 °C 29.5in /  1000.5hPa Sur 9mph /  14.5km/h 22.3mph /  35.9km/h 42% 0in /  0.0mm
12:49 63.1 °F /  17.3 °C 39.7 °F /  4.3 °C 29.5in /  1000.5hPa Sur 9.2mph /  14.8km/h 22mph /  35.4km/h 42% 0in /  0.0mm
12:54 63.1 °F /  17.3 °C 40.3 °F /  4.6 °C 29.5in /  1000.5hPa Sur 9.7mph /  15.6km/h 20mph /  32.2km/h 42.9% 0in /  0.0mm
12:59 63.1 °F /  17.3 °C 40.3 °F /  4.6 °C 29.5in /  999.9hPa Sur 10mph /  16.1km/h 15mph /  24.1km/h 43% 0in /  0.0mm
13:04 63.1 °F /  17.3 °C 40.3 °F /  4.6 °C 29.5in /  999.9hPa Sur 8.7mph /  14km/h 15mph /  24.1km/h 43% 0in /  0.0mm
13:09 63.1 °F /  17.3 °C 40.3 °F /  4.6 °C 29.5in /  999.9hPa SSO 8.1mph /  13km/h 15mph /  24.1km/h 43% 0in /  0.0mm
13:14 63.1 °F /  17.3 °C 40.6 °F /  4.8 °C 29.5in /  999.7hPa SSO 7.8mph /  12.5km/h 18.4mph /  29.6km/h 43.5% 0in /  0.0mm
13:19 63.3 °F /  17.4 °C 40.5 °F /  4.7 °C 29.5in /  999.7hPa SSO 7.6mph /  12.2km/h 18.4mph /  29.6km/h 43.1% 0in /  0.0mm
13:24 63.5 °F /  17.5 °C 40.6 °F /  4.8 °C 29.5in /  999.7hPa SSO 7.6mph /  12.2km/h 16.1mph /  25.9km/h 43% 0in /  0.0mm
13:29 63.9 °F /  17.7 °C 40.6 °F /  4.8 °C 29.5in /  999.7hPa SSO 7.6mph /  12.2km/h 21.3mph /  34.3km/h 42.8% 0in /  0.0mm
13:34 64 °F /  17.8 °C 40.6 °F /  4.8 °C 29.5in /  999.7hPa SO 9.9mph /  15.9km/h 21mph /  33.8km/h 42.5% 0in /  0.0mm
13:39 64 °F /  17.8 °C 40.6 °F /  4.8 °C 29.5in /  999.7hPa SO 11.2mph /  18km/h 17.5mph /  28.2km/h 42.3% 0in /  0.0mm
13:44 64.2 °F /  17.9 °C 40.6 °F /  4.8 °C 29.5in /  999.4hPa SO 9.5mph /  15.3km/h 20.8mph /  33.5km/h 42% 0in /  0.0mm
13:49 64.2 °F /  17.9 °C 40.6 °F /  4.8 °C 29.5in /  999.4hPa SO 8.5mph /  13.7km/h 21mph /  33.8km/h 42% 0in /  0.0mm
13:54 64.2 °F /  17.9 °C 40.8 °F /  4.9 °C 29.5in /  999.4hPa OSO 9.4mph /  15.2km/h 31.7mph /  51km/h 42.3% 0in /  0.0mm
13:59 62.6 °F /  17 °C 40.5 °F /  4.7 °C 29.5in /  999.3hPa ONO 10mph /  16.1km/h 33.7mph /  54.2km/h 44.2% 0in /  0.0mm
14:04 60.3 °F /  15.7 °C 40.3 °F /  4.6 °C 29.5in /  999.3hPa ONO 16.1mph /  25.9km/h 34mph /  54.7km/h 47.5% 0in /  0.0mm
14:09 59.2 °F /  15.1 °C 40.5 °F /  4.7 °C 29.6in /  1000.6hPa ONO 19.2mph /  30.9km/h 36.8mph /  59.2km/h 50% 0in /  0.0mm
14:14 58.1 °F /  14.5 °C 41 °F /  5 °C 29.6in /  1000.6hPa ONO 18.8mph /  30.2km/h 37mph /  59.5km/h 52.9% 0in /  0.0mm
14:19 57 °F /  13.9 °C 41.2 °F /  5.1 °C 29.6in /  1000.6hPa ONO 18.5mph /  29.8km/h 36mph /  57.9km/h 55.4% 0in /  0.0mm
14:24 56.1 °F /  13.4 °C 41.9 °F /  5.5 °C 29.6in /  1001.0hPa NO 18.8mph /  30.3km/h 36.9mph /  59.4km/h 58.8% 0in /  0.0mm
14:29 55 °F /  12.8 °C 42.4 °F /  5.8 °C 29.6in /  1001.0hPa ONO 19mph /  30.6km/h 37mph /  59.5km/h 62.4% 0in /  0.0mm
14:34 54.1 °F /  12.3 °C 42.4 °F /  5.8 °C 29.6in /  1001.0hPa ONO 19.1mph /  30.8km/h 35mph /  56.3km/h 64.6% 0in /  0.0mm
14:39 53.8 °F /  12.1 °C 42.4 °F /  5.8 °C 29.6in /  1001.6hPa ONO 19.2mph /  30.9km/h 35.1mph /  56.5km/h 65.5% 0.01in /  0.3mm
14:44 52.9 °F /  11.6 °C 42.8 °F /  6 °C 29.6in /  1001.6hPa ONO 18.8mph /  30.2km/h 38.4mph /  61.8km/h 68.7% 0.04in /  1.0mm
14:49 52.2 °F /  11.2 °C 43.2 °F /  6.2 °C 29.6in /  1001.6hPa ONO 18.5mph /  29.8km/h 38mph /  61.2km/h 71.6% 0.05in /  1.3mm
14:54 51.8 °F /  11 °C 43.3 °F /  6.3 °C 29.6in /  1001.9hPa ONO 16.8mph /  27.1km/h 31mph /  49.9km/h 72.8% 0.06in /  1.5mm
14:59 51.4 °F /  10.8 °C 43.5 °F /  6.4 °C 29.6in /  1001.9hPa Oeste 15.9mph /  25.6km/h 23mph /  37km/h 74% 0.06in /  1.5mm
15:04 51.4 °F /  10.8 °C 43.5 °F /  6.4 °C 29.6in /  1001.9hPa OSO 13.2mph /  21.2km/h 19mph /  30.6km/h 74.3% 0.07in /  1.8mm
15:09 51.4 °F /  10.8 °C 44.1 °F /  6.7 °C 29.6in /  1002.6hPa Sur 11.8mph /  19km/h 16mph /  25.7km/h 75.8% 0.08in /  2.0mm
15:14 51.4 °F /  10.8 °C 44.8 °F /  7.1 °C 29.6in /  1002.6hPa SSE 9.4mph /  15.1km/h 14mph /  22.5km/h 77.7% 0.08in /  2.0mm
15:19 51.3 °F /  10.7 °C 45.1 °F /  7.3 °C 29.6in /  1002.6hPa SSE 8.1mph /  13km/h 16.1mph /  25.9km/h 79.8% 0.09in /  2.3mm
15:24 50.9 °F /  10.5 °C 45.3 °F /  7.4 °C 29.6in /  1002.6hPa SE 8.8mph /  14.2km/h 17mph /  27.4km/h 81.1% 0.09in /  2.3mm
15:29 50.7 °F /  10.4 °C 45.1 °F /  7.3 °C 29.6in /  1002.5hPa Sur 9.2mph /  14.8km/h 17.3mph /  27.8km/h 80.9% 0.1in /  2.6mm
15:34 50.7 °F /  10.4 °C 44.8 °F /  7.1 °C 29.6in /  1002.5hPa Sur 8.4mph /  13.6km/h 15mph /  24.1km/h 80% 0.1in /  2.6mm
15:39 50.9 °F /  10.5 °C 44.8 °F /  7.1 °C 29.6in /  1002.5hPa Sur 8.1mph /  13km/h 14mph /  22.5km/h 79.5% 0.1in /  2.6mm
15:44 51.3 °F /  10.7 °C 45.1 °F /  7.3 °C 29.6in /  1002.3hPa Sur 7.6mph /  12.3km/h 12mph /  19.3km/h 79.7% 0.09in /  2.3mm
15:49 51.3 °F /  10.7 °C 45.5 °F /  7.5 °C 29.6in /  1002.3hPa SSE 7.4mph /  11.9km/h 13mph /  20.9km/h 80.4% 0.05in /  1.3mm
15:54 51.3 °F /  10.7 °C 45.3 °F /  7.4 °C 29.6in /  1002.3hPa SSE 7.5mph /  12.1km/h 13mph /  20.9km/h 80% 0.05in /  1.3mm
15:59 51.3 °F /  10.7 °C 45.3 °F /  7.4 °C 29.6in /  1001.8hPa SSE 7.6mph /  12.2km/h 13mph /  20.9km/h 79.8% 0.04in /  1.1mm
16:04 51.3 °F /  10.7 °C 45.3 °F /  7.4 °C 29.6in /  1001.8hPa Sur 7.5mph /  12km/h 13mph /  20.9km/h 79.8% 0.04in /  1.1mm
16:09 51.3 °F /  10.7 °C 45.3 °F /  7.4 °C 29.6in /  1001.8hPa SSE 7.4mph /  11.9km/h 13mph /  20.9km/h 79.9% 0.03in /  0.8mm
16:14 51.3 °F /  10.7 °C 45.3 °F /  7.4 °C 29.6in /  1001.6hPa Sur 7.1mph /  11.4km/h 9.7mph /  15.6km/h 79.9% 0.02in /  0.6mm
16:19 51.3 °F /  10.7 °C 45 °F /  7.2 °C 29.6in /  1001.6hPa Sur 6.9mph /  11.1km/h 10mph /  16.1km/h 79% 0.02in /  0.6mm
16:24 51.3 °F /  10.7 °C 45 °F /  7.2 °C 29.6in /  1001.6hPa SSO 6.3mph /  10.1km/h 9mph /  14.5km/h 79% 0.01in /  0.3mm
16:29 51.4 °F /  10.8 °C 45.1 °F /  7.3 °C 29.6in /  1001.4hPa Sur 5.9mph /  9.5km/h 8.7mph /  14km/h 79% 0in /  0.0mm
16:34 51.6 °F /  10.9 °C 45 °F /  7.2 °C 29.6in /  1001.4hPa SSE 5.5mph /  8.8km/h 11.2mph /  18km/h 77.9% 0in /  0.0mm
16:39 52 °F /  11.1 °C 45.1 °F /  7.3 °C 29.6in /  1001.6hPa Sur 5.2mph /  8.4km/h 12mph /  19.3km/h 77% 0in /  0.0mm
16:44 52.2 °F /  11.2 °C 45 °F /  7.2 °C 29.6in /  1001.6hPa Sur 5.8mph /  9.4km/h 9mph /  14.5km/h 76.1% 0in /  0.0mm
16:49 52.3 °F /  11.3 °C 45 °F /  7.2 °C 29.6in /  1001.6hPa SSE 6.2mph /  10km/h 13.8mph /  22.2km/h 75.9% 0in /  0.0mm
16:54 52.5 °F /  11.4 °C 45 °F /  7.2 °C 29.6in /  1001.6hPa SSE 6.3mph /  10.2km/h 14mph /  22.5km/h 75.1% 0in /  0.0mm
16:59 52.9 °F /  11.6 °C 44.6 °F /  7 °C 29.6in /  1001.6hPa SSE 6.4mph /  10.3km/h 11.5mph /  18.5km/h 73.6% 0in /  0.0mm
17:04 53.1 °F /  11.7 °C 44.6 °F /  7 °C 29.6in /  1001.6hPa Sur 6.4mph /  10.3km/h 12mph /  19.3km/h 72.7% 0in /  0.0mm
17:09 53.2 °F /  11.8 °C 44.6 °F /  7 °C 29.6in /  1001.6hPa Sur 6.4mph /  10.3km/h 9.2mph /  14.8km/h 72% 0in /  0.0mm
17:14 53.8 °F /  12.1 °C 44.4 °F /  6.9 °C 29.6in /  1001.3hPa SSO 5.3mph /  8.5km/h 8.5mph /  13.7km/h 70.8% 0in /  0.0mm
17:19 54.1 °F /  12.3 °C 44.6 °F /  7 °C 29.6in /  1001.3hPa Oeste 4.7mph /  7.6km/h 9mph /  14.5km/h 70.1% 0in /  0.0mm
17:24 54.5 °F /  12.5 °C 44.8 °F /  7.1 °C 29.6in /  1001.3hPa ONO 3mph /  4.8km/h 6mph /  9.7km/h 70% 0in /  0.0mm
17:29 54.7 °F /  12.6 °C 44.6 °F /  7 °C 29.6in /  1001.2hPa SSO 2mph /  3.2km/h 6.2mph /  10km/h 68.9% 0in /  0.0mm
17:34 54.7 °F /  12.6 °C 44.2 °F /  6.8 °C 29.6in /  1001.2hPa Sur 3mph /  4.9km/h 6.4mph /  10.3km/h 67.7% 0in /  0.0mm
17:39 54.7 °F /  12.6 °C 44.6 °F /  7 °C 29.6in /  1001.2hPa SSE 3.6mph /  5.8km/h 6.9mph /  11.1km/h 68.7% 0in /  0.0mm
17:44 54.5 °F /  12.5 °C 45.1 °F /  7.3 °C 29.6in /  1001.2hPa SE 4mph /  6.5km/h 7mph /  11.3km/h 70.4% 0in /  0.0mm
17:49 54.1 °F /  12.3 °C 45 °F /  7.2 °C 29.6in /  1001.2hPa SE 4.3mph /  6.9km/h 7mph /  11.3km/h 71.4% 0in /  0.0mm
17:54 53.6 °F /  12 °C 45 °F /  7.2 °C 29.6in /  1001.3hPa SE 4.1mph /  6.6km/h 6mph /  9.7km/h 72.2% 0in /  0.0mm
17:59 53.4 °F /  11.9 °C 45.1 °F /  7.3 °C 29.6in /  1001.3hPa SSE 4mph /  6.5km/h 6.2mph /  10km/h 73.2% 0in /  0.0mm
18:04 53.2 °F /  11.8 °C 44.8 °F /  7.1 °C 29.6in /  1001.3hPa SSE 4mph /  6.5km/h 6.9mph /  11.1km/h 73.1% 0in /  0.0mm
18:09 53.2 °F /  11.8 °C 44.8 °F /  7.1 °C 29.6in /  1001.4hPa SO 4mph /  6.5km/h 7mph /  11.3km/h 73% 0in /  0.0mm
18:14 53.2 °F /  11.8 °C 44.4 °F /  6.9 °C 29.6in /  1001.4hPa SSO 3.7mph /  6km/h 5.8mph /  9.3km/h 72.1% 0in /  0.0mm
18:19 53.2 °F /  11.8 °C 44.6 °F /  7 °C 29.6in /  1001.4hPa SSO 3.6mph /  5.8km/h 6mph /  9.7km/h 72.3% 0in /  0.0mm
18:24 53.2 °F /  11.8 °C 44.8 °F /  7.1 °C 29.6in /  1001.5hPa SSO 3.3mph /  5.3km/h 5mph /  8km/h 72.9% 0in /  0.0mm
18:29 53.2 °F /  11.8 °C 44.8 °F /  7.1 °C 29.6in /  1001.5hPa SSO 3.1mph /  5km/h 6.2mph /  10km/h 72.7% 0in /  0.0mm
18:34 53.4 °F /  11.9 °C 44.6 °F /  7 °C 29.6in /  1001.5hPa SSO 3.4mph /  5.5km/h 8.1mph /  13km/h 71.9% 0in /  0.0mm
18:39 53.4 °F /  11.9 °C 44.2 °F /  6.8 °C 29.6in /  1001.5hPa SSO 3.6mph /  5.8km/h 8mph /  12.9km/h 71% 0in /  0.0mm
18:44 53.4 °F /  11.9 °C 43.5 °F /  6.4 °C 29.6in /  1001.5hPa SO 4mph /  6.5km/h 9.2mph /  14.8km/h 69% 0in /  0.0mm
18:49 53.8 °F /  12.1 °C 41.9 °F /  5.5 °C 29.6in /  1001.5hPa OSO 4.3mph /  6.9km/h 10.7mph /  17.2km/h 64.1% 0in /  0.0mm
18:54 54.3 °F /  12.4 °C 40.3 °F /  4.6 °C 29.6in /  1001.5hPa OSO 5.7mph /  9.1km/h 14mph /  22.5km/h 59.1% 0in /  0.0mm
18:59 55 °F /  12.8 °C 39.2 °F /  4 °C 29.6in /  1001.5hPa OSO 6.4mph /  10.3km/h 15mph /  24.1km/h 54.9% 0in /  0.0mm
19:04 55.4 °F /  13 °C 38.7 °F /  3.7 °C 29.6in /  1001.5hPa OSO 7.8mph /  12.6km/h 15mph /  24.1km/h 53.1% 0in /  0.0mm
19:09 55.4 °F /  13 °C 38.5 °F /  3.6 °C 29.6in /  1001.6hPa OSO 8.5mph /  13.7km/h 14mph /  22.5km/h 53% 0in /  0.0mm
19:14 55.2 °F /  12.9 °C 38.3 °F /  3.5 °C 29.6in /  1001.6hPa OSO 7.8mph /  12.5km/h 12.7mph /  20.4km/h 52.8% 0in /  0.0mm
19:19 55.2 °F /  12.9 °C 37.9 °F /  3.3 °C 29.6in /  1001.6hPa OSO 7.4mph /  11.9km/h 13mph /  20.9km/h 52.2% 0in /  0.0mm
19:24 55 °F /  12.8 °C 37.9 °F /  3.3 °C 29.6in /  1001.6hPa OSO 7.1mph /  11.4km/h 12mph /  19.3km/h 52.4% 0in /  0.0mm
19:29 54.9 °F /  12.7 °C 37.8 °F /  3.2 °C 29.6in /  1001.5hPa OSO 6.9mph /  11.1km/h 12mph /  19.3km/h 52.1% 0in /  0.0mm
19:34 54.9 °F /  12.7 °C 37.6 °F /  3.1 °C 29.6in /  1001.5hPa SO 6.3mph /  10.1km/h 11mph /  17.7km/h 52.1% 0in /  0.0mm
19:39 54.9 °F /  12.7 °C 37.9 °F /  3.3 °C 29.6in /  1001.5hPa SO 5.9mph /  9.5km/h 10.4mph /  16.7km/h 52.8% 0in /  0.0mm
19:44 54.7 °F /  12.6 °C 37.8 °F /  3.2 °C 29.6in /  1001.5hPa OSO 6.2mph /  10km/h 11.4mph /  18.3km/h 52.8% 0in /  0.0mm
19:49 54.7 °F /  12.6 °C 37.8 °F /  3.2 °C 29.6in /  1001.5hPa OSO 6.4mph /  10.3km/h 12mph /  19.3km/h 52.8% 0in /  0.0mm
19:54 54.5 °F /  12.5 °C 37.8 °F /  3.2 °C 29.6in /  1001.5hPa SO 6.3mph /  10.1km/h 12mph /  19.3km/h 52.9% 0in /  0.0mm
19:59 54.5 °F /  12.5 °C 37.4 °F /  3 °C 29.6in /  1001.5hPa SO 6.2mph /  10km/h 10.4mph /  16.7km/h 52.4% 0in /  0.0mm
20:04 54.5 °F /  12.5 °C 37.4 °F /  3 °C 29.6in /  1001.5hPa SO 5.5mph /  8.9km/h 10mph /  16.1km/h 52.3% 0in /  0.0mm
20:09 54.7 °F /  12.6 °C 37.4 °F /  3 °C 29.6in /  1001.5hPa SSO 5.2mph /  8.4km/h 9mph /  14.5km/h 52% 0in /  0.0mm
20:14 54.7 °F /  12.6 °C 37.9 °F /  3.3 °C 29.6in /  1001.4hPa Sur 4.8mph /  7.8km/h 9.2mph /  14.8km/h 53.2% 0in /  0.0mm
20:19 53.6 °F /  12 °C 38.5 °F /  3.6 °C 29.6in /  1001.4hPa Sur 4.7mph /  7.6km/h 11.5mph /  18.5km/h 56.5% 0in /  0.0mm
20:24 53.1 °F /  11.7 °C 37.9 °F /  3.3 °C 29.6in /  1001.6hPa Sur 6.6mph /  10.6km/h 13.8mph /  22.2km/h 56.3% 0in /  0.0mm
20:29 53.6 °F /  12 °C 37.4 °F /  3 °C 29.6in /  1001.6hPa Sur 7.6mph /  12.2km/h 14mph /  22.5km/h 54.3% 0in /  0.0mm
20:34 54 °F /  12.2 °C 37.8 °F /  3.2 °C 29.6in /  1001.6hPa Sur 7.9mph /  12.7km/h 15.2mph /  24.5km/h 54% 0in /  0.0mm
20:39 53.8 °F /  12.1 °C 37.9 °F /  3.3 °C 29.6in /  1001.7hPa SSO 8.1mph /  13km/h 15mph /  24.1km/h 54.9% 0in /  0.0mm
20:44 53.4 °F /  11.9 °C 37.6 °F /  3.1 °C 29.6in /  1001.7hPa Sur 6.7mph /  10.8km/h 10mph /  16.1km/h 55% 0in /  0.0mm
20:49 53.4 °F /  11.9 °C 37.6 °F /  3.1 °C 29.6in /  1001.7hPa Sur 5.9mph /  9.5km/h 9mph /  14.5km/h 55% 0in /  0.0mm
20:54 53.4 °F /  11.9 °C 37.6 °F /  3.1 °C 29.6in /  1001.7hPa SO 5.5mph /  8.8km/h 8mph /  12.9km/h 55% 0in /  0.0mm
20:59 53.4 °F /  11.9 °C 37.6 °F /  3.1 °C 29.6in /  1001.7hPa OSO 5.2mph /  8.4km/h 6mph /  9.7km/h 54.9% 0in /  0.0mm
21:04 53.4 °F /  11.9 °C 37.6 °F /  3.1 °C 29.6in /  1001.7hPa SSE 3.4mph /  5.4km/h 5mph /  8km/h 55% 0in /  0.0mm
21:09 53.4 °F /  11.9 °C 37.6 °F /  3.1 °C 29.6in /  1001.7hPa SE 2.4mph /  3.9km/h 6.9mph /  11.1km/h 55% 0in /  0.0mm
21:14 53.2 °F /  11.8 °C 37.6 °F /  3.1 °C 29.6in /  1001.4hPa SE 3.2mph /  5.1km/h 7.4mph /  11.9km/h 55.3% 0in /  0.0mm
21:19 53.1 °F /  11.7 °C 37.8 °F /  3.2 °C 29.6in /  1001.4hPa SE 3.6mph /  5.8km/h 9.2mph /  14.8km/h 56% 0in /  0.0mm
21:24 52.7 °F /  11.5 °C 37.6 °F /  3.1 °C 29.6in /  1001.4hPa SE 4.8mph /  7.7km/h 9.2mph /  14.8km/h 56.4% 0in /  0.0mm
21:29 52.3 °F /  11.3 °C 37.6 °F /  3.1 °C 29.6in /  1001.2hPa SE 5.4mph /  8.7km/h 10.4mph /  16.7km/h 57% 0in /  0.0mm
21:34 52.2 °F /  11.2 °C 37.4 °F /  3 °C 29.6in /  1001.2hPa SSE 5.9mph /  9.5km/h 10mph /  16.1km/h 57.2% 0in /  0.0mm
21:39 52 °F /  11.1 °C 37.4 °F /  3 °C 29.6in /  1001.2hPa SSE 6.2mph /  10km/h 9.2mph /  14.8km/h 57.5% 0in /  0.0mm
21:44 52 °F /  11.1 °C 37.6 °F /  3.1 °C 29.6in /  1001.2hPa SSE 6mph /  9.7km/h 9mph /  14.5km/h 58% 0in /  0.0mm
21:49 51.6 °F /  10.9 °C 37.4 °F /  3 °C 29.6in /  1001.2hPa SE 5.9mph /  9.5km/h 9.7mph /  15.6km/h 58% 0in /  0.0mm
21:54 51.6 °F /  10.9 °C 37.6 °F /  3.1 °C 29.6in /  1001.5hPa SE 5.5mph /  8.8km/h 10mph /  16.1km/h 58.7% 0in /  0.0mm
21:59 51.4 °F /  10.8 °C 37.6 °F /  3.1 °C 29.6in /  1001.5hPa ESE 5.2mph /  8.4km/h 9mph /  14.5km/h 59% 0in /  0.0mm
22:04 51.3 °F /  10.7 °C 37.4 °F /  3 °C 29.6in /  1001.5hPa ESE 4.8mph /  7.8km/h 9.2mph /  14.8km/h 59% 0in /  0.0mm
22:09 51.3 °F /  10.7 °C 37.4 °F /  3 °C 29.6in /  1001.8hPa SE 4.7mph /  7.6km/h 9mph /  14.5km/h 58.8% 0in /  0.0mm
22:14 51.4 °F /  10.8 °C 37 °F /  2.8 °C 29.6in /  1001.8hPa SE 5.2mph /  8.3km/h 8mph /  12.9km/h 58% 0in /  0.0mm
22:19 51.4 °F /  10.8 °C 37 °F /  2.8 °C 29.6in /  1001.8hPa SSE 5.4mph /  8.7km/h 8.5mph /  13.7km/h 58% 0in /  0.0mm
22:24 51.6 °F /  10.9 °C 36.9 °F /  2.7 °C 29.6in /  1001.8hPa Sur 4.7mph /  7.6km/h 9mph /  14.5km/h 57% 0in /  0.0mm
22:29 52.2 °F /  11.2 °C 36.7 °F /  2.6 °C 29.6in /  1001.8hPa Sur 4.3mph /  6.9km/h 9mph /  14.5km/h 55.7% 0in /  0.0mm
22:34 52.3 °F /  11.3 °C 36.3 °F /  2.4 °C 29.6in /  1001.8hPa Sur 4.9mph /  7.9km/h 12.7mph /  20.4km/h 54.3% 0in /  0.0mm
22:39 53.1 °F /  11.7 °C 36.3 °F /  2.4 °C 29.6in /  1001.8hPa Sur 5.2mph /  8.4km/h 13mph /  20.9km/h 52.8% 0in /  0.0mm
22:44 53.4 °F /  11.9 °C 36 °F /  2.2 °C 29.6in /  1001.6hPa Sur 6.7mph /  10.8km/h 11.5mph /  18.5km/h 51.4% 0in /  0.0mm
22:49 54 °F /  12.2 °C 35.8 °F /  2.1 °C 29.6in /  1001.6hPa Sur 7.6mph /  12.2km/h 12mph /  19.3km/h 50.2% 0in /  0.0mm
22:54 54 °F /  12.2 °C 35.8 °F /  2.1 °C 29.6in /  1001.6hPa Sur 7.6mph /  12.2km/h 12mph /  19.3km/h 50% 0in /  0.0mm
22:59 54.1 °F /  12.3 °C 35.6 °F /  2 °C 29.6in /  1001.6hPa Sur 7.6mph /  12.2km/h 12mph /  19.3km/h 49.4% 0in /  0.0mm
23:04 54.1 °F /  12.3 °C 35.4 °F /  1.9 °C 29.6in /  1001.6hPa Sur 7.5mph /  12km/h 12mph /  19.3km/h 49% 0in /  0.0mm
23:09 54.3 °F /  12.4 °C 35.6 °F /  2 °C 29.6in /  1001.6hPa SSE 7.4mph /  11.9km/h 12mph /  19.3km/h 49% 0in /  0.0mm
23:14 54.1 °F /  12.3 °C 36 °F /  2.2 °C 29.6in /  1001.2hPa SSE 7.4mph /  11.9km/h 12mph /  19.3km/h 49.9% 0in /  0.0mm
23:19 54.1 °F /  12.3 °C 36 °F /  2.2 °C 29.6in /  1001.2hPa SSE 7.4mph /  11.9km/h 11.5mph /  18.5km/h 50% 0in /  0.0mm
23:24 54 °F /  12.2 °C 35.8 °F /  2.1 °C 29.6in /  1001.2hPa SSE 6.8mph /  10.9km/h 12mph /  19.3km/h 50% 0in /  0.0mm
23:29 54 °F /  12.2 °C 36.1 °F /  2.3 °C 29.6in /  1001.1hPa SE 6.4mph /  10.3km/h 10mph /  16.1km/h 51% 0in /  0.0mm
23:34 53.8 °F /  12.1 °C 36.1 °F /  2.3 °C 29.6in /  1001.1hPa Sur 6.3mph /  10.1km/h 12.3mph /  19.8km/h 51% 0in /  0.0mm
23:39 54 °F /  12.2 °C 35.8 °F /  2.1 °C 29.6in /  1001.1hPa Sur 6.2mph /  10km/h 13mph /  20.9km/h 50.2% 0in /  0.0mm
23:44 54.1 °F /  12.3 °C 35.8 °F /  2.1 °C 29.6in /  1001.0hPa SSO 6.6mph /  10.7km/h 13mph /  20.9km/h 50% 0in /  0.0mm
23:49 54.1 °F /  12.3 °C 36 °F /  2.2 °C 29.6in /  1001.0hPa Sur 6.9mph /  11.1km/h 11.5mph /  18.5km/h 50% 0in /  0.0mm
23:54 54.1 °F /  12.3 °C 35.8 °F /  2.1 °C 29.6in /  1001.4hPa Sur 6mph /  9.6km/h 12mph /  19.3km/h 49.9% 0in /  0.0mm
23:59 54.1 °F /  12.3 °C 35.8 °F /  2.1 °C 29.6in /  1001.4hPa Sur 5.4mph /  8.7km/h 12mph /  19.3km/h 49.7% 0in /  0.0mm
Murcia-Puente Tocinos, España
Compliments of Weather Underground - 3 mb

La estación de MeteoMurcia.com, publica sus datos en los siguientes proyectos:

Weather Underground PWS IMURCIAP2 Meteoclimatic www.awekas.at

W3Counter
Web Analytics